createdAt,value
2018-09-20T00:01:32.380Z,9.07
2018-09-20T00:04:03.017Z,9.90
2018-09-20T00:06:32.802Z,8.70
2018-09-20T00:09:02.716Z,12.23
2018-09-20T00:11:32.912Z,8.90
2018-09-20T00:14:02.472Z,10.50
2018-09-20T00:16:32.954Z,12.80
2018-09-20T00:19:02.585Z,9.30
2018-09-20T00:21:32.373Z,12.10
2018-09-20T00:24:01.901Z,10.80
2018-09-20T00:26:31.705Z,9.80
2018-09-20T00:29:01.266Z,12.73
2018-09-20T00:31:33.803Z,8.50
2018-09-20T00:34:03.263Z,12.67
2018-09-20T00:36:32.843Z,10.30
2018-09-20T00:39:04.502Z,12.33
2018-09-20T00:41:34.056Z,8.90
2018-09-20T00:44:03.546Z,9.80
2018-09-20T00:46:33.206Z,10.03
2018-09-20T00:49:03.848Z,9.60
2018-09-20T00:51:34.448Z,9.23
2018-09-20T00:54:06.397Z,10.17
2018-09-20T00:56:35.921Z,11.40
2018-09-20T00:59:06.414Z,9.13
2018-09-20T01:01:36.008Z,9.30
2018-09-20T01:04:05.517Z,10.07
2018-09-20T01:06:35.055Z,8.53
2018-09-20T01:09:12.606Z,11.90
2018-09-20T01:11:42.132Z,10.20
2018-09-20T01:14:11.608Z,8.50
2018-09-20T01:16:41.101Z,8.23
2018-09-20T01:19:10.987Z,9.20
2018-09-20T01:21:40.530Z,8.90
2018-09-20T01:24:09.986Z,11.77
2018-09-20T01:26:39.618Z,11.13
2018-09-20T01:29:09.109Z,11.23
2018-09-20T01:31:38.594Z,9.10
2018-09-20T01:34:11.036Z,8.50
2018-09-20T01:36:40.813Z,9.70
2018-09-20T01:39:13.064Z,9.40
2018-09-20T01:41:42.759Z,13.10
2018-09-20T01:44:15.395Z,11.03
2018-09-20T01:46:45.485Z,11.70
2018-09-20T01:49:15.158Z,8.83
2018-09-20T01:51:44.633Z,11.40
2018-09-20T01:54:14.371Z,11.57
2018-09-20T01:56:49.310Z,9.17
2018-09-20T01:59:19.019Z,10.23
2018-09-20T02:01:48.562Z,10.43
2018-09-20T02:04:18.506Z,10.47
2018-09-20T02:06:50.499Z,11.23
2018-09-20T02:09:20.064Z,11.50
2018-09-20T02:11:49.629Z,9.53
2018-09-20T02:14:19.810Z,10.23
2018-09-20T02:16:49.527Z,10.77
2018-09-20T02:19:19.090Z,9.07
2018-09-20T02:21:48.731Z,10.80
2018-09-20T02:24:18.178Z,11.13
2018-09-20T02:26:51.302Z,9.83
2018-09-20T02:29:20.897Z,10.77
2018-09-20T02:31:50.371Z,10.50
2018-09-20T02:34:19.956Z,11.37
2018-09-20T02:36:49.902Z,10.30
2018-09-20T02:39:22.029Z,12.60
2018-09-20T02:41:51.630Z,11.67
2018-09-20T02:47:21.496Z,11.60
2018-09-20T02:49:51.400Z,11.40
2018-09-20T02:52:20.860Z,12.63
2018-09-20T02:54:50.493Z,9.50
2018-09-20T02:57:20.325Z,11.80
2018-09-20T03:00:21.327Z,12.87
2018-09-20T03:02:50.958Z,10.23
2018-09-20T03:05:21.778Z,10.67
2018-09-20T03:07:51.340Z,12.03
2018-09-20T03:10:21.068Z,11.70
2018-09-20T03:12:50.561Z,9.80
2018-09-20T03:15:20.057Z,9.47
2018-09-20T03:17:49.611Z,10.23
2018-09-20T03:20:19.369Z,12.57
2018-09-20T03:22:49.050Z,11.03
2018-09-20T03:25:18.575Z,10.00
2018-09-20T03:27:48.306Z,12.27
2018-09-20T03:30:18.060Z,12.83
2018-09-20T03:32:47.649Z,11.10
2018-09-20T03:35:17.631Z,10.57
2018-09-20T03:37:47.158Z,10.60
2018-09-20T03:40:16.793Z,10.47
2018-09-20T03:42:47.136Z,11.33
2018-09-20T03:45:18.040Z,12.37
2018-09-20T03:47:47.682Z,10.27
2018-09-20T03:50:17.762Z,17.90
2018-09-20T03:52:48.085Z,14.23
2018-09-20T03:55:17.831Z,11.27
2018-09-20T03:57:47.879Z,12.30
2018-09-20T04:00:45.878Z,11.67
2018-09-20T04:03:15.519Z,12.40
2018-09-20T04:05:45.203Z,9.80
2018-09-20T04:08:37.449Z,14.93
2018-09-20T04:11:08.147Z,12.40
2018-09-20T04:13:39.563Z,11.00
2018-09-20T04:16:12.623Z,11.13
2018-09-20T04:18:44.514Z,9.47
2018-09-20T04:21:18.671Z,13.20
2018-09-20T04:23:52.198Z,11.17
2018-09-20T04:26:22.349Z,10.63
2018-09-20T04:28:57.448Z,12.93
2018-09-20T04:31:31.089Z,9.60
2018-09-20T04:34:02.418Z,12.87
2018-09-20T04:36:32.364Z,13.50
2018-09-20T04:39:02.182Z,14.03
2018-09-20T04:41:34.976Z,10.90
2018-09-20T04:44:04.477Z,10.87
2018-09-20T04:46:37.842Z,15.03
2018-09-20T04:49:07.345Z,14.67
2018-09-20T04:51:37.721Z,11.23
2018-09-20T04:54:07.824Z,14.20
2018-09-20T04:56:37.664Z,13.47
2018-09-20T04:59:07.432Z,11.60
2018-09-20T05:01:37.146Z,12.17
2018-09-20T05:04:06.976Z,11.57
2018-09-20T05:06:38.371Z,10.10
2018-09-20T05:09:15.329Z,10.90
2018-09-20T05:11:45.403Z,11.83
2018-09-20T05:14:15.983Z,10.77
2018-09-20T05:16:45.506Z,11.77
2018-09-20T05:19:15.382Z,12.33
2018-09-20T05:21:45.338Z,11.63
2018-09-20T05:24:14.851Z,11.20
2018-09-20T05:26:44.375Z,10.30
2018-09-20T05:29:13.909Z,10.70
2018-09-20T05:31:43.645Z,12.83
2018-09-20T05:34:13.181Z,11.87
2018-09-20T05:36:45.318Z,11.53
2018-09-20T05:39:14.960Z,12.40
2018-09-20T05:41:44.498Z,13.27
2018-09-20T05:44:14.313Z,10.80
2018-09-20T05:46:44.432Z,12.67
2018-09-20T05:49:13.964Z,14.23
2018-09-20T05:51:43.701Z,12.53
2018-09-20T05:54:13.174Z,10.43
2018-09-20T05:56:48.301Z,10.77
2018-09-20T05:59:18.439Z,14.03
2018-09-20T06:01:47.993Z,11.50
2018-09-20T06:04:17.607Z,10.53
2018-09-20T06:06:49.529Z,9.90
2018-09-20T06:09:19.397Z,11.20
2018-09-20T06:11:49.211Z,18.23
2018-09-20T06:14:21.517Z,11.47
2018-09-20T06:16:52.467Z,12.83
2018-09-20T06:19:22.903Z,11.73
2018-09-20T06:21:52.689Z,10.80
2018-09-20T06:24:22.198Z,10.97
2018-09-20T06:26:51.994Z,12.97
2018-09-20T06:29:21.522Z,11.17
2018-09-20T06:31:51.078Z,12.60
2018-09-20T06:34:20.541Z,15.43
2018-09-20T06:36:50.557Z,14.87
2018-09-20T06:39:19.956Z,11.87
2018-09-20T06:41:49.731Z,13.40
2018-09-20T06:44:19.167Z,17.77
2018-09-20T06:46:48.784Z,13.27
2018-09-20T06:49:18.293Z,12.03
2018-09-20T06:51:50.375Z,10.23
2018-09-20T06:54:19.798Z,12.03
2018-09-20T06:56:49.252Z,13.17
2018-09-20T06:59:18.732Z,11.27
2018-09-20T07:01:48.245Z,11.20
2018-09-20T07:04:17.681Z,10.20
2018-09-20T07:06:47.481Z,11.67
2018-09-20T07:09:17.402Z,10.63
2018-09-20T07:11:46.866Z,10.83
2018-09-20T07:14:16.490Z,11.93
2018-09-20T07:16:45.976Z,12.27
2018-09-20T07:19:15.541Z,10.80
2018-09-20T07:21:45.332Z,9.30
2018-09-20T07:24:14.893Z,14.17
2018-09-20T07:26:44.734Z,8.93
2018-09-20T07:29:14.331Z,7.83
2018-09-20T07:31:45.149Z,9.00
2018-09-20T07:34:14.785Z,7.90
2018-09-20T07:36:44.924Z,7.37
2018-09-20T07:39:14.433Z,7.37
2018-09-20T07:41:44.537Z,7.77
2018-09-20T07:44:14.132Z,7.93
2018-09-20T07:46:44.334Z,6.70
2018-09-20T07:49:13.765Z,8.10
2018-09-20T07:51:43.668Z,9.67
2018-09-20T07:54:14.231Z,9.10
2018-09-20T07:56:44.261Z,7.40
2018-09-20T07:59:13.968Z,10.83
2018-09-20T08:01:44.483Z,9.50
2018-09-20T08:04:14.141Z,9.80
2018-09-20T08:06:43.797Z,7.83
2018-09-20T08:09:14.170Z,9.47
2018-09-20T08:11:44.032Z,8.53
2018-09-20T08:14:13.594Z,9.87
2018-09-20T08:16:44.659Z,9.50
2018-09-20T08:19:14.171Z,10.33
2018-09-20T08:21:44.172Z,11.13
2018-09-20T08:24:13.721Z,8.27
2018-09-20T08:26:44.831Z,12.53
2018-09-20T08:29:14.297Z,8.43
2018-09-20T08:31:43.845Z,7.57
2018-09-20T08:34:13.353Z,8.03
2018-09-20T08:36:45.338Z,8.03
2018-09-20T08:39:14.849Z,10.57
2018-09-20T08:41:44.630Z,6.53
2018-09-20T08:44:15.250Z,7.27
2018-09-20T08:46:45.942Z,5.90
2018-09-20T08:49:15.532Z,6.90
2018-09-20T08:51:47.422Z,7.60
2018-09-20T08:54:17.000Z,6.97
2018-09-20T08:56:46.735Z,10.20
2018-09-20T08:59:16.576Z,11.03
2018-09-20T09:01:46.439Z,9.00
2018-09-20T09:04:15.882Z,9.37
2018-09-20T09:06:45.533Z,7.83
2018-09-20T09:09:15.074Z,8.00
2018-09-20T09:11:44.650Z,8.30
2018-09-20T09:14:16.445Z,6.93
2018-09-20T09:16:46.137Z,9.77
2018-09-20T09:19:15.624Z,6.47
2018-09-20T09:21:45.336Z,9.53
2018-09-20T09:24:15.210Z,7.17
2018-09-20T09:26:45.046Z,9.03
2018-09-20T09:29:14.581Z,8.67
2018-09-20T09:31:44.162Z,7.37
2018-09-20T09:34:15.031Z,6.60
2018-09-20T09:36:45.082Z,6.43
2018-09-20T09:39:14.663Z,9.20
2018-09-20T09:41:45.115Z,7.00
2018-09-20T09:44:14.618Z,7.67
2018-09-20T09:46:44.101Z,6.20
2018-09-20T09:49:13.915Z,7.43
2018-09-20T09:51:43.482Z,9.03
2018-09-20T09:54:13.137Z,13.90
2018-09-20T09:56:42.635Z,9.23
2018-09-20T09:59:13.498Z,6.03
2018-09-20T10:01:43.001Z,8.47
2018-09-20T10:04:12.466Z,8.83
2018-09-20T10:06:42.319Z,7.00
2018-09-20T10:09:12.441Z,6.80
2018-09-20T10:11:41.937Z,9.37
2018-09-20T10:14:11.410Z,8.37
2018-09-20T10:16:40.929Z,5.90
2018-09-20T10:19:10.939Z,7.83
2018-09-20T10:21:40.429Z,6.83
2018-09-20T10:24:09.985Z,7.17
2018-09-20T10:26:39.441Z,7.10
2018-09-20T10:29:09.173Z,8.37
2018-09-20T10:31:38.694Z,7.30
2018-09-20T10:34:08.214Z,6.77
2018-09-20T10:36:37.749Z,5.80
2018-09-20T10:39:11.225Z,5.07
2018-09-20T10:41:40.801Z,6.00
2018-09-20T10:44:10.342Z,5.57
2018-09-20T10:46:41.213Z,6.40
2018-09-20T10:49:10.627Z,4.77
2018-09-20T10:51:41.719Z,5.27
2018-09-20T10:54:11.173Z,4.83
2018-09-20T10:56:41.938Z,6.93
2018-09-20T10:59:11.445Z,7.60
2018-09-20T11:01:40.951Z,5.73
2018-09-20T11:04:10.370Z,5.40
2018-09-20T11:06:39.849Z,6.50
2018-09-20T11:09:10.128Z,8.33
2018-09-20T11:11:39.682Z,7.07
2018-09-20T11:14:09.285Z,8.07
2018-09-20T11:16:39.937Z,6.17
2018-09-20T11:19:10.848Z,7.57
2018-09-20T11:21:40.501Z,6.30
2018-09-20T11:24:10.244Z,5.90
2018-09-20T11:26:39.741Z,6.70
2018-09-20T11:29:09.275Z,6.50
2018-09-20T11:31:39.502Z,7.07
2018-09-20T11:34:09.130Z,6.07
2018-09-20T11:36:38.946Z,7.70
2018-09-20T11:39:11.173Z,5.20
2018-09-20T11:41:40.899Z,4.57
2018-09-20T11:44:10.902Z,4.60
2018-09-20T11:46:40.611Z,4.47
2018-09-20T11:49:10.582Z,7.97
2018-09-20T11:51:41.794Z,4.40
2018-09-20T11:54:11.389Z,4.73
2018-09-20T11:56:41.151Z,4.60
2018-09-20T11:59:11.114Z,6.57
2018-09-20T12:01:40.849Z,5.03
2018-09-20T12:04:10.621Z,4.73
2018-09-20T12:06:40.396Z,5.77
2018-09-20T12:09:09.954Z,6.77
2018-09-20T12:11:39.602Z,5.77
2018-09-20T12:14:09.050Z,7.17
2018-09-20T12:16:38.541Z,5.03
2018-09-20T12:19:08.117Z,5.23
2018-09-20T12:21:38.260Z,6.67
2018-09-20T12:24:07.735Z,5.27
2018-09-20T12:26:37.211Z,5.07
2018-09-20T12:29:06.889Z,5.73
2018-09-20T12:31:36.566Z,6.97
2018-09-20T12:34:06.214Z,10.30
2018-09-20T12:36:35.741Z,5.97
2018-09-20T12:39:09.139Z,5.07
2018-09-20T12:41:38.885Z,5.07
2018-09-20T12:44:08.330Z,5.13
2018-09-20T12:46:38.204Z,5.03
2018-09-20T12:49:07.680Z,5.37
2018-09-20T12:51:37.258Z,5.53
2018-09-20T12:54:07.586Z,5.50
2018-09-20T12:56:37.083Z,5.30
2018-09-20T12:59:06.696Z,4.80
2018-09-20T13:01:36.509Z,5.53
2018-09-20T13:04:06.117Z,8.60
2018-09-20T13:06:35.640Z,4.67
2018-09-20T13:09:17.662Z,4.50
2018-09-20T13:11:47.128Z,5.57
2018-09-20T13:14:16.548Z,6.20
2018-09-20T13:16:46.038Z,5.63
2018-09-20T13:19:15.762Z,4.90
2018-09-20T13:21:45.250Z,4.27
2018-09-20T13:24:14.755Z,4.43
2018-09-20T13:26:44.270Z,4.90
2018-09-20T13:29:15.092Z,4.97
2018-09-20T13:31:44.722Z,4.30
2018-09-20T13:34:14.253Z,5.07
2018-09-20T13:36:44.026Z,6.97
2018-09-20T13:39:14.881Z,4.63
2018-09-20T13:41:44.442Z,4.30
2018-09-20T13:44:14.055Z,4.40
2018-09-20T13:46:43.684Z,4.17
2018-09-20T13:49:13.262Z,5.07
2018-09-20T13:51:42.716Z,3.40
2018-09-20T13:54:12.260Z,3.43
2018-09-20T13:56:41.760Z,4.13
2018-09-20T13:59:11.401Z,3.43
2018-09-20T14:01:40.926Z,4.00
2018-09-20T14:04:10.596Z,5.10
2018-09-20T14:06:40.418Z,4.93
2018-09-20T14:09:11.461Z,5.47
2018-09-20T14:11:41.635Z,4.30
2018-09-20T14:14:11.118Z,3.77
2018-09-20T14:16:40.765Z,9.33
2018-09-20T14:19:10.690Z,4.37
2018-09-20T14:21:40.353Z,7.20
2018-09-20T14:24:10.646Z,4.03
2018-09-20T14:26:42.023Z,7.77
2018-09-20T14:29:11.512Z,4.60
2018-09-20T14:31:40.953Z,4.97
2018-09-20T14:34:10.630Z,7.23
2018-09-20T14:36:40.165Z,4.27
2018-09-20T14:39:10.858Z,3.70
2018-09-20T14:41:40.890Z,4.57
2018-09-20T14:44:22.338Z,6.07
2018-09-20T14:46:52.395Z,4.77
2018-09-20T14:49:27.844Z,4.10
2018-09-20T14:51:57.293Z,4.83
2018-09-20T14:54:26.999Z,4.30
2018-09-20T14:56:56.734Z,7.37
2018-09-20T14:59:26.224Z,5.03
2018-09-20T15:01:56.063Z,7.33
2018-09-20T15:04:25.588Z,4.03
2018-09-20T15:07:01.803Z,4.50
2018-09-20T15:09:31.425Z,3.73
2018-09-20T15:12:01.256Z,4.00
2018-09-20T15:14:31.038Z,4.03
2018-09-20T15:17:00.682Z,3.97
2018-09-20T15:19:30.169Z,6.77
2018-09-20T15:21:59.711Z,3.60
2018-09-20T15:24:31.141Z,4.27
2018-09-20T15:27:00.806Z,4.07
2018-09-20T15:29:30.452Z,6.03
2018-09-20T15:31:59.976Z,4.00
2018-09-20T15:34:29.512Z,4.10
2018-09-20T15:36:59.522Z,3.90
2018-09-20T15:39:29.893Z,4.53
2018-09-20T15:41:59.634Z,12.63
2018-09-20T15:44:29.433Z,4.97
2018-09-20T15:46:59.957Z,4.33
2018-09-20T15:49:29.487Z,4.30
2018-09-20T15:51:59.098Z,3.93
2018-09-20T15:54:28.977Z,6.07
2018-09-20T15:57:00.034Z,4.60
2018-09-20T15:59:31.033Z,4.30
2018-09-20T16:02:01.536Z,4.03
2018-09-20T16:04:34.573Z,6.10
2018-09-20T16:07:04.612Z,5.57
2018-09-20T16:09:35.366Z,3.87
2018-09-20T16:12:04.935Z,4.60
2018-09-20T16:14:34.600Z,4.87
2018-09-20T16:17:04.126Z,5.37
2018-09-20T16:19:36.214Z,3.90
2018-09-20T16:22:05.728Z,4.67
2018-09-20T16:24:35.202Z,4.37
2018-09-20T16:27:04.944Z,5.97
2018-09-20T16:29:45.068Z,4.20
2018-09-20T16:36:45.279Z,4.30
2018-09-20T16:39:23.631Z,10.33
2018-09-20T16:41:56.907Z,5.13
2018-09-20T16:44:34.193Z,8.60
2018-09-20T16:47:04.474Z,5.87
2018-09-20T16:49:34.435Z,5.20
2018-09-20T16:52:06.488Z,6.40
2018-09-20T16:54:36.028Z,4.80
2018-09-20T16:57:05.634Z,5.00
2018-09-20T16:59:37.538Z,5.97
2018-09-20T17:02:07.109Z,5.20
2018-09-20T17:04:36.749Z,5.37
2018-09-20T17:07:06.367Z,6.40
2018-09-20T17:09:36.176Z,5.63
2018-09-20T17:12:06.739Z,7.67
2018-09-20T17:14:36.915Z,6.37
2018-09-20T17:17:12.322Z,5.20
2018-09-20T17:19:42.133Z,4.77
2018-09-20T17:22:11.679Z,7.00
2018-09-20T17:24:46.412Z,6.00
2018-09-20T17:27:16.965Z,5.77
2018-09-20T17:29:46.741Z,8.07
2018-09-20T17:32:17.145Z,7.93
2018-09-20T17:34:47.139Z,8.23
2018-09-20T17:37:18.427Z,7.03
2018-09-20T17:39:49.878Z,6.67
2018-09-20T17:42:29.576Z,5.30
2018-09-20T17:44:59.746Z,7.57
2018-09-20T17:47:29.648Z,9.10
2018-09-20T17:50:00.327Z,7.23
2018-09-20T17:52:31.439Z,11.30
2018-09-20T17:55:01.520Z,5.60
2018-09-20T17:57:34.514Z,10.93
2018-09-20T18:00:04.406Z,10.40
2018-09-20T18:02:35.652Z,7.80
2018-09-20T18:05:05.465Z,11.47
2018-09-20T18:07:35.063Z,6.37
2018-09-20T18:10:04.940Z,10.67
2018-09-20T18:12:35.034Z,9.03
2018-09-20T18:15:04.834Z,7.40
2018-09-20T18:17:36.512Z,7.17
2018-09-20T18:20:06.426Z,5.00
2018-09-20T18:22:39.181Z,6.70
2018-09-20T18:25:11.532Z,4.90
2018-09-20T18:27:41.144Z,8.63
2018-09-20T18:30:11.781Z,9.00
2018-09-20T18:32:44.605Z,7.27
2018-09-20T18:35:15.201Z,7.20
2018-09-20T18:37:50.843Z,9.43
2018-09-20T18:40:21.692Z,8.07
2018-09-20T18:46:24.615Z,5.27
2018-09-20T18:48:57.260Z,10.23
2018-09-20T18:51:38.016Z,6.40
2018-09-20T18:54:08.014Z,5.93
2018-09-20T18:56:47.907Z,5.73
2018-09-20T19:03:15.085Z,5.83
2018-09-20T19:06:45.950Z,8.37
2018-09-20T19:09:33.780Z,8.03
2018-09-20T19:12:10.978Z,5.20
2018-09-20T19:14:55.500Z,5.60
2018-09-20T19:17:26.449Z,6.57
2018-09-20T19:19:56.186Z,7.43
2018-09-20T19:22:25.913Z,6.30
2018-09-20T19:24:55.999Z,7.67
2018-09-20T19:27:25.708Z,8.60
2018-09-20T19:29:55.763Z,6.23
2018-09-20T19:32:26.354Z,6.40
2018-09-20T19:34:57.291Z,8.27
2018-09-20T19:37:26.941Z,5.80
2018-09-20T19:40:06.338Z,8.87
2018-09-20T19:42:37.068Z,9.63
2018-09-20T19:45:07.098Z,6.33
2018-09-20T19:47:37.615Z,5.67
2018-09-20T19:50:07.986Z,10.27
2018-09-20T19:53:52.509Z,8.23
2018-09-20T19:56:22.243Z,7.43
2018-09-20T19:58:52.467Z,9.40
2018-09-20T20:01:22.600Z,7.47
2018-09-20T20:03:52.672Z,6.27
2018-09-20T20:06:22.265Z,6.90
2018-09-20T20:08:52.600Z,6.13
2018-09-20T20:11:22.352Z,10.37
2018-09-20T20:13:52.024Z,7.37
2018-09-20T20:16:22.320Z,8.67
2018-09-20T20:19:03.841Z,8.73
2018-09-20T20:21:35.198Z,7.97
2018-09-20T20:24:06.022Z,7.47
2018-09-20T20:26:36.497Z,6.80
2018-09-20T20:29:06.182Z,9.53
2018-09-20T20:31:35.982Z,9.60
2018-09-20T20:34:06.132Z,8.53
2018-09-20T20:36:38.070Z,6.60
2018-09-20T20:39:09.378Z,10.10
2018-09-20T20:41:39.179Z,9.87
2018-09-20T20:44:08.803Z,7.80
2018-09-20T20:46:38.541Z,6.53
2018-09-20T20:49:52.795Z,6.63
2018-09-20T20:52:24.264Z,10.23
2018-09-20T20:55:02.066Z,7.80
2018-09-20T20:57:32.234Z,8.60
2018-09-20T21:00:02.097Z,7.93
2018-09-20T21:02:32.560Z,9.80
2018-09-20T21:05:02.184Z,9.23
2018-09-20T21:07:32.065Z,10.43
2018-09-20T21:10:01.781Z,7.53
2018-09-20T21:12:32.697Z,8.67
2018-09-20T21:15:02.367Z,9.50
2018-09-20T21:17:32.408Z,7.73
2018-09-20T21:20:02.038Z,8.67
2018-09-20T21:22:32.051Z,10.23
2018-09-20T21:25:01.668Z,7.83
2018-09-20T21:27:31.516Z,8.73
2018-09-20T21:30:01.221Z,8.60
2018-09-20T21:32:30.834Z,8.50
2018-09-20T21:35:00.541Z,13.23
2018-09-20T21:37:30.407Z,9.87
2018-09-20T21:40:00.144Z,10.60
2018-09-20T21:42:29.703Z,7.83
2018-09-20T21:45:02.103Z,10.97
2018-09-20T21:47:33.034Z,9.43
2018-09-20T21:50:02.684Z,8.37
2018-09-20T21:52:32.522Z,10.23
2018-09-20T21:55:02.456Z,9.50
2018-09-20T21:57:33.072Z,11.03
2018-09-20T22:00:03.446Z,10.13
2018-09-20T22:02:38.378Z,8.83
2018-09-20T22:05:08.136Z,8.80
2018-09-20T22:07:37.894Z,14.90
2018-09-20T22:10:08.086Z,8.57
2018-09-20T22:12:38.084Z,12.30
2018-09-20T22:15:11.876Z,9.70
2018-09-20T22:17:41.950Z,12.40
2018-09-20T22:20:11.631Z,11.40
2018-09-20T22:22:41.539Z,8.70
2018-09-20T22:25:12.677Z,11.43
2018-09-20T22:27:42.478Z,9.47
2018-09-20T22:30:12.182Z,8.77
2018-09-20T22:32:42.300Z,8.20
2018-09-20T22:35:13.753Z,8.97
2018-09-20T22:37:43.278Z,9.10
2018-09-20T22:40:15.124Z,10.57
2018-09-20T22:42:45.075Z,12.33
2018-09-20T22:45:14.660Z,10.03
2018-09-20T22:47:44.135Z,10.43
2018-09-20T22:50:16.034Z,8.67
2018-09-20T22:52:45.485Z,9.37
2018-09-20T22:55:15.101Z,11.00
2018-09-20T22:57:44.597Z,7.93
2018-09-20T23:00:14.221Z,9.30
2018-09-20T23:02:43.891Z,9.10
2018-09-20T23:05:13.940Z,9.60
2018-09-20T23:07:43.768Z,7.57
2018-09-20T23:10:13.419Z,8.90
2018-09-20T23:12:43.274Z,9.37
2018-09-20T23:15:12.902Z,10.13
2018-09-20T23:17:42.499Z,11.63
2018-09-20T23:20:12.016Z,8.97
2018-09-20T23:22:42.290Z,10.87
2018-09-20T23:25:12.157Z,11.73
2018-09-20T23:27:41.761Z,9.43
2018-09-20T23:30:23.125Z,8.07
2018-09-20T23:32:52.909Z,11.07
2018-09-20T23:35:23.834Z,9.07
2018-09-20T23:37:53.462Z,12.80
2018-09-20T23:40:22.959Z,8.47
2018-09-20T23:42:52.774Z,10.63
2018-09-20T23:45:24.711Z,8.47
2018-09-20T23:47:54.548Z,8.27
2018-09-20T23:50:24.260Z,7.67
2018-09-20T23:52:53.900Z,8.03
2018-09-20T23:55:23.469Z,7.57
2018-09-20T23:57:52.992Z,8.67
